5BLKA RJOK-RJBD
Flight info
| Callsign | 5BLKA |
|---|---|
| Flight time | 0h 26m |
| Altitude | 19000 |
| Route | KAIFU IGPIG Y41 VERDI |
| Aircraft | SF50/L-SBDGRWY/LB2U2 |
Departure
| Time | 2026-04-19 06:46 |
|---|---|
| Airport | Kochi Ryoma Airport (RJOK) |
Arrival
| Time | 2026-04-19 07:12 |
|---|---|
| Airport | Nanki Shirahama Airport (RJBD) |
| Time | Latitude | Longitude | Altitude | Speed | Heading |
|---|---|---|---|---|---|
| 2026-04-19 06:33 | 33.54597 | 133.67469 | 31 ft | 0 kts | 306° |
| 2026-04-19 06:42 | 33.54605 | 133.67439 | 31 ft | 6 kts | 250° |
| 2026-04-19 06:42 | 33.54570 | 133.67399 | 31 ft | 8 kts | 222° |
| 2026-04-19 06:42 | 33.54543 | 133.67340 | 31 ft | 9 kts | 275° |
| 2026-04-19 06:43 | 33.54580 | 133.67277 | 31 ft | 10 kts | 310° |
| 2026-04-19 06:43 | 33.54626 | 133.67209 | 31 ft | 11 kts | 308° |
| 2026-04-19 06:43 | 33.54677 | 133.67135 | 31 ft | 12 kts | 314° |
| 2026-04-19 06:43 | 33.54737 | 133.67057 | 31 ft | 13 kts | 311° |
| 2026-04-19 06:44 | 33.54798 | 133.66969 | 31 ft | 14 kts | 308° |
| 2026-04-19 06:44 | 33.54866 | 133.66878 | 31 ft | 15 kts | 311° |
| 2026-04-19 06:44 | 33.54938 | 133.66780 | 31 ft | 16 kts | 310° |
| 2026-04-19 06:44 | 33.55011 | 133.66674 | 31 ft | 17 kts | 310° |
| 2026-04-19 06:45 | 33.55091 | 133.66567 | 31 ft | 18 kts | 315° |
| 2026-04-19 06:45 | 33.55133 | 133.66442 | 31 ft | 16 kts | 229° |
| 2026-04-19 06:45 | 33.55099 | 133.66404 | 31 ft | 0 kts | 219° |
| 2026-04-19 06:45 | 33.55083 | 133.66389 | 32 ft | 9 kts | 219° |
| 2026-04-19 06:46 | 33.54990 | 133.66396 | 31 ft | 23 kts | 132° |
| 2026-04-19 06:46 | 33.54739 | 133.66746 | 31 ft | 91 kts | 138° |
| 2026-04-19 06:46 | 33.54237 | 133.67427 | 301 ft | 122 kts | 133° |
| 2026-04-19 06:46 | 33.53609 | 133.68235 | 680 ft | 143 kts | 145° |
| 2026-04-19 06:47 | 33.52634 | 133.68606 | 1145 ft | 155 kts | 171° |
| 2026-04-19 06:47 | 33.51524 | 133.68914 | 1575 ft | 169 kts | 163° |
| 2026-04-19 06:47 | 33.50388 | 133.69298 | 2231 ft | 168 kts | 162° |
| 2026-04-19 06:47 | 33.49276 | 133.69694 | 2908 ft | 168 kts | 160° |
| 2026-04-19 06:48 | 33.48143 | 133.70116 | 3503 ft | 171 kts | 160° |
| 2026-04-19 06:48 | 33.47032 | 133.70520 | 4191 ft | 168 kts | 160° |
| 2026-04-19 06:48 | 33.45897 | 133.70913 | 4762 ft | 173 kts | 161° |
| 2026-04-19 06:48 | 33.44744 | 133.71314 | 5361 ft | 171 kts | 160° |
| 2026-04-19 06:49 | 33.43617 | 133.71723 | 5974 ft | 170 kts | 159° |
| 2026-04-19 06:49 | 33.42550 | 133.72333 | 6439 ft | 174 kts | 137° |
| 2026-04-19 06:49 | 33.41826 | 133.73463 | 7029 ft | 166 kts | 118° |
| 2026-04-19 06:49 | 33.41359 | 133.74686 | 7677 ft | 163 kts | 112° |
| 2026-04-19 06:50 | 33.40945 | 133.76012 | 8019 ft | 175 kts | 114° |
| 2026-04-19 06:50 | 33.40643 | 133.77404 | 8587 ft | 175 kts | 96° |
| 2026-04-19 06:50 | 33.40625 | 133.78860 | 9105 ft | 176 kts | 97° |
| 2026-04-19 06:50 | 33.40508 | 133.80320 | 9663 ft | 176 kts | 101° |
| 2026-04-19 06:51 | 33.40346 | 133.81781 | 10174 ft | 179 kts | 102° |
| 2026-04-19 06:51 | 33.40177 | 133.83279 | 10590 ft | 185 kts | 102° |
| 2026-04-19 06:51 | 33.40193 | 133.84857 | 10987 ft | 197 kts | 83° |
| 2026-04-19 06:51 | 33.40626 | 133.86448 | 11405 ft | 205 kts | 74° |
| 2026-04-19 06:52 | 33.41112 | 133.88072 | 11827 ft | 210 kts | 75° |
| 2026-04-19 06:52 | 33.41595 | 133.89739 | 12249 ft | 215 kts | 75° |
| 2026-04-19 06:52 | 33.42096 | 133.91446 | 12668 ft | 220 kts | 75° |
| 2026-04-19 06:52 | 33.42607 | 133.93194 | 13074 ft | 225 kts | 75° |
| 2026-04-19 06:53 | 33.43131 | 133.94982 | 13489 ft | 230 kts | 75° |
| 2026-04-19 06:53 | 33.43665 | 133.96811 | 13878 ft | 235 kts | 75° |
| 2026-04-19 06:53 | 33.44207 | 133.98671 | 14273 ft | 238 kts | 74° |
| 2026-04-19 06:53 | 33.44755 | 134.00546 | 14681 ft | 239 kts | 74° |
| 2026-04-19 06:54 | 33.45309 | 134.02434 | 15086 ft | 241 kts | 73° |
| 2026-04-19 06:54 | 33.45869 | 134.04317 | 15557 ft | 238 kts | 74° |
| 2026-04-19 06:54 | 33.46407 | 134.06198 | 15950 ft | 240 kts | 75° |
| 2026-04-19 06:54 | 33.46943 | 134.08070 | 16277 ft | 242 kts | 75° |
| 2026-04-19 06:55 | 33.47512 | 134.10004 | 16665 ft | 244 kts | 74° |
| 2026-04-19 06:55 | 33.48065 | 134.11916 | 17031 ft | 247 kts | 74° |
| 2026-04-19 06:55 | 33.48634 | 134.13876 | 17305 ft | 252 kts | 73° |
| 2026-04-19 06:55 | 33.49207 | 134.15873 | 17617 ft | 252 kts | 75° |
| 2026-04-19 06:56 | 33.49754 | 134.17885 | 17890 ft | 257 kts | 73° |
| 2026-04-19 06:56 | 33.50368 | 134.19897 | 18295 ft | 257 kts | 70° |
| 2026-04-19 06:56 | 33.50997 | 134.21929 | 18519 ft | 261 kts | 72° |
| 2026-04-19 06:56 | 33.51569 | 134.23980 | 18850 ft | 259 kts | 73° |
| 2026-04-19 06:57 | 33.52151 | 134.26051 | 18996 ft | 268 kts | 73° |
| 2026-04-19 06:57 | 33.52770 | 134.28211 | 19015 ft | 280 kts | 72° |
| 2026-04-19 06:57 | 33.53428 | 134.30447 | 19019 ft | 289 kts | 72° |
| 2026-04-19 06:57 | 33.54095 | 134.32744 | 19026 ft | 295 kts | 73° |
| 2026-04-19 06:58 | 33.54769 | 134.35093 | 19019 ft | 300 kts | 73° |
| 2026-04-19 06:58 | 33.55455 | 134.37474 | 19019 ft | 304 kts | 72° |
| 2026-04-19 06:58 | 33.56150 | 134.39882 | 19022 ft | 307 kts | 72° |
| 2026-04-19 06:58 | 33.56846 | 134.42308 | 19015 ft | 310 kts | 73° |
| 2026-04-19 06:59 | 33.57550 | 134.44761 | 19006 ft | 312 kts | 73° |
| 2026-04-19 06:59 | 33.58268 | 134.47268 | 18729 ft | 325 kts | 73° |
| 2026-04-19 06:59 | 33.59022 | 134.49903 | 18307 ft | 343 kts | 73° |
| 2026-04-19 06:59 | 33.59813 | 134.52646 | 17804 ft | 350 kts | 72° |
| 2026-04-19 07:00 | 33.60918 | 134.55251 | 17330 ft | 352 kts | 57° |
| 2026-04-19 07:00 | 33.62376 | 134.57600 | 16880 ft | 350 kts | 54° |
| 2026-04-19 07:00 | 33.63827 | 134.59889 | 16412 ft | 341 kts | 55° |
| 2026-04-19 07:00 | 33.65236 | 134.62151 | 15959 ft | 336 kts | 55° |
| 2026-04-19 07:01 | 33.66630 | 134.64395 | 15524 ft | 334 kts | 55° |
| 2026-04-19 07:01 | 33.67958 | 134.66647 | 15078 ft | 327 kts | 62° |
| 2026-04-19 07:01 | 33.68846 | 134.69114 | 14651 ft | 318 kts | 76° |
| 2026-04-19 07:01 | 33.69265 | 134.71671 | 14236 ft | 308 kts | 88° |
| 2026-04-19 07:02 | 33.69273 | 134.74202 | 13831 ft | 300 kts | 96° |
| 2026-04-19 07:02 | 33.69215 | 134.76685 | 13407 ft | 295 kts | 95° |
| 2026-04-19 07:02 | 33.69172 | 134.79146 | 13013 ft | 295 kts | 95° |
| 2026-04-19 07:02 | 33.69119 | 134.81600 | 12627 ft | 293 kts | 95° |
| 2026-04-19 07:03 | 33.69062 | 134.84042 | 12238 ft | 292 kts | 95° |
| 2026-04-19 07:03 | 33.69009 | 134.86463 | 11856 ft | 286 kts | 94° |
| 2026-04-19 07:03 | 33.68961 | 134.88709 | 11498 ft | 260 kts | 95° |
| 2026-04-19 07:03 | 33.68905 | 134.90800 | 11163 ft | 244 kts | 95° |
| 2026-04-19 07:04 | 33.68847 | 134.92809 | 10845 ft | 239 kts | 95° |
| 2026-04-19 07:04 | 33.68783 | 134.94819 | 10530 ft | 238 kts | 95° |
| 2026-04-19 07:04 | 33.68711 | 134.96799 | 10224 ft | 236 kts | 95° |
| 2026-04-19 07:04 | 33.68636 | 134.98735 | 9923 ft | 235 kts | 95° |
| 2026-04-19 07:05 | 33.68553 | 135.00690 | 9588 ft | 232 kts | 94° |
| 2026-04-19 07:05 | 33.68455 | 135.02608 | 9272 ft | 227 kts | 95° |
| 2026-04-19 07:05 | 33.68354 | 135.04480 | 9012 ft | 220 kts | 95° |
| 2026-04-19 07:05 | 33.68260 | 135.06254 | 9004 ft | 206 kts | 95° |
| 2026-04-19 07:06 | 33.68172 | 135.07932 | 8994 ft | 197 kts | 95° |
| 2026-04-19 07:06 | 33.68172 | 135.09561 | 8805 ft | 199 kts | 83° |
| 2026-04-19 07:06 | 33.68698 | 135.11147 | 8438 ft | 209 kts | 64° |
| 2026-04-19 07:06 | 33.69380 | 135.12656 | 8283 ft | 205 kts | 64° |
| 2026-04-19 07:07 | 33.70026 | 135.14133 | 7997 ft | 196 kts | 66° |
| 2026-04-19 07:07 | 33.70630 | 135.15604 | 7526 ft | 197 kts | 68° |
| 2026-04-19 07:07 | 33.71235 | 135.17080 | 7129 ft | 195 kts | 66° |
| 2026-04-19 07:07 | 33.71870 | 135.18489 | 6796 ft | 191 kts | 64° |
| 2026-04-19 07:08 | 33.72544 | 135.19864 | 6352 ft | 191 kts | 64° |
| 2026-04-19 07:08 | 33.73165 | 135.21261 | 5953 ft | 187 kts | 68° |
| 2026-04-19 07:08 | 33.73669 | 135.22694 | 5539 ft | 186 kts | 69° |
| 2026-04-19 07:08 | 33.74233 | 135.24100 | 5107 ft | 187 kts | 64° |
| 2026-04-19 07:09 | 33.74835 | 135.25478 | 4731 ft | 184 kts | 65° |
| 2026-04-19 07:09 | 33.75300 | 135.26894 | 4285 ft | 187 kts | 81° |
| 2026-04-19 07:09 | 33.74905 | 135.28423 | 3874 ft | 206 kts | 131° |
| 2026-04-19 07:09 | 33.73670 | 135.29264 | 3914 ft | 199 kts | 158° |
| 2026-04-19 07:10 | 33.72431 | 135.29703 | 3941 ft | 167 kts | 160° |
| 2026-04-19 07:10 | 33.71530 | 135.30339 | 3627 ft | 145 kts | 136° |
| 2026-04-19 07:10 | 33.70820 | 135.31217 | 2948 ft | 144 kts | 131° |
| 2026-04-19 07:10 | 33.70183 | 135.32121 | 2315 ft | 144 kts | 131° |
| 2026-04-19 07:11 | 33.69561 | 135.32981 | 1818 ft | 119 kts | 135° |
| 2026-04-19 07:11 | 33.69010 | 135.33674 | 1171 ft | 113 kts | 139° |
| 2026-04-19 07:11 | 33.68441 | 135.34231 | 766 ft | 99 kts | 155° |
| 2026-04-19 07:11 | 33.67916 | 135.34729 | 571 ft | 93 kts | 137° |
| 2026-04-19 07:12 | 33.67424 | 135.35265 | 469 ft | 101 kts | 137° |
| 2026-04-19 07:12 | 33.66884 | 135.35806 | 335 ft | 102 kts | 136° |
| 2026-04-19 07:12 | 33.66419 | 135.36275 | 297 ft | 75 kts | 135° |
| 2026-04-19 07:12 | 33.66159 | 135.36537 | 297 ft | 18 kts | 142° |
| 2026-04-19 07:13 | 33.66070 | 135.36607 | 299 ft | 12 kts | 159° |
| 2026-04-19 07:13 | 33.66043 | 135.36633 | 299 ft | 6 kts | 313° |
| 2026-04-19 07:13 | 33.66069 | 135.36608 | 299 ft | 5 kts | 323° |
| 2026-04-19 07:13 | 33.66114 | 135.36565 | 298 ft | 11 kts | 322° |
| 2026-04-19 07:14 | 33.66188 | 135.36494 | 296 ft | 16 kts | 321° |
| 2026-04-19 07:14 | 33.66250 | 135.36433 | 298 ft | 18 kts | 321° |
| 2026-04-19 07:14 | 33.66386 | 135.36297 | 297 ft | 15 kts | 306° |
| 2026-04-19 07:14 | 33.66363 | 135.36222 | 302 ft | 6 kts | 232° |
| 2026-04-19 07:15 | 33.66340 | 135.36187 | 306 ft | 8 kts | 233° |
| 2026-04-19 07:15 | 33.66332 | 135.36143 | 307 ft | 6 kts | 279° |
| 2026-04-19 07:15 | 33.66316 | 135.36054 | 308 ft | 7 kts | 230° |
| 2026-04-19 07:16 | 33.66336 | 135.36050 | 308 ft | 6 kts | 67° |
| 2026-04-19 07:16 | 33.66336 | 135.36057 | 308 ft | 0 kts | 133° |